KPVW/PVW METAR and TAF weather

Enter ICAO airport designator
Station Type Date Time Source
KPVW METAR 2019/02/20 23:55 UTC NOAA

KPVW 202355Z AUTO 20012G17KT 10SM CLR 10/M14 A2978 RMK AO2 T00991145 10113 20070


Station Type Date Time Source
KPVW Decoded METAR 2019/02/20 23:55 UTC NOAA

Plainview, Hale County Airport, TX, United States (KPVW) 34-10-05N 101-43-02W
Feb 20, 2019 - 06:55 PM EST / 2019.02.20 2355 UTC
Wind: from the SSW (200 degrees) at 14 MPH (12 KT) gusting to 20 MPH (17 KT):0
Visibility: 10 mile(s):0
Sky conditions: clear
Temperature: 49.8 F (9.9 C)
Dew Point: 5.9 F (-14.5 C)
Relative Humidity: 16%
Pressure (altimeter): 29.78 in. Hg (1008 hPa)
ob: KPVW 202355Z AUTO 20012G17KT 10SM CLR 10/M14 A2978 RMK AO2 T00991145 10113 20070
cycle: 0

Station Type Date Time Source
KPVW TAF 2019/02/20 18:24 UTC NOAA

TAF KPVW 201722Z 2018/2118 27028G32KT P6SM FEW250
FM202300 18009KT P6SM BKN250


Example: see airport list